Main page
METAR-TAF:

METAR-TAF

Airports :

Ann Arbor Municipal Airport

Ann Arbor, Michigan, United States

latitude: 42-13-26N, longitude: 083-44-24W, elevation: 255 m

Current weather observation

The report was made 44 minutes ago, at 15:53 UTC
Wind 6 kt from the Southwest
Temperature 28°C
Humidity 70%
Pressure 1024 hPa
Visibility: 16.1 km
Clear sky

METAR: KARB 191553Z 23006KT 10SM CLR 28/22 A3025 RMK AO2 SLP237 T02830217

Time: 12:37 (16:37 UTC)


TAF: missing

Weather observations and forecasts of more than 4000 airports (METAR and TAF reports).

The available stations are represented by yellow and red dots on the map.

Hover mouse over dot to see the name of the station.

Then click to see weather observations and forecasts.

To change the map : click on the green buttons with a black cross to zoom in, on the green button with a dash to zoom out, or on the green arrows for adjacent maps.


METAR-TAF: